Flight Track Log - Related Links

Times and Time Zones

All times are in EDT time to prevent confusion due to time zone crossing. See the AAL1491 flight status page for this flight to view local times or setup timezone preferences in your user account.

Time Position Orientation Groundspeed Altitude Reporting Facility
EDT Latitude Longitude Course Direction KTS MPH feet Rate Location/Type
Sat 11:19:07 AM 38.7833 -77.0333 290° West 209 241 2,600  Level Potomac TRACON
Sat 11:20:00 AM 39.1034 -77.2701 322° Northwest  Level FlightAware Approximate
Sat 11:20:01 AM 38.7500 -77.0667 218° Southwest 249 287 5,800  Level Potomac TRACON
Sat 11:20:55 AM 38.7500 -77.1500 270° West 263 303 8,600 2,684 Climbing Potomac TRACON
Sat 11:21:00 AM 39.1867 -77.3505 326° Northwest  Level FlightAware Approximate
Sat 11:21:55 AM 38.8000 -77.2167 314° West 311 358 10,900  Level Potomac TRACON
Sat 11:22:00 AM 39.2762 -77.4272 326° Northwest  Level FlightAware Approximate
Sat 11:22:55 AM 38.9000 -77.2833 333° Northwest 346 398 13,800  Level Potomac TRACON
Sat 11:23:00 AM 39.3673 -77.5007 322° Northwest  Level FlightAware Approximate
Sat 11:23:55 AM 38.9833 -77.3667 322° Northwest 379 436 15,900  Level Potomac TRACON
Sat 11:24:00 AM 39.4510 -77.5869 290° West  Level FlightAware Approximate
Sat 11:26:22 AM 39.1811 -77.5408 326° Northwest 386 444 17,000  Level Washington Center
Sat 11:27:22 AM 39.2653 -77.6156 326° Northwest 375 432 18,400 1,750 Climbing Washington Center
Sat 11:28:22 AM 39.3536 -77.6931 326° Northwest 375 432 20,500 2,083 Climbing Washington Center
Sat 11:29:23 AM 39.4439 -77.7764 325° Northwest 381 438 22,600 2,066 Climbing Washington Center
Sat 11:30:24 AM 39.5258 -77.8569 323° Northwest 401 461 24,700 1,685 Climbing Washington Center
Sat 11:32:46 AM 39.6331 -78.1706 294° West 396 456 28,300 1,426 Climbing Cleveland Center
Sat 11:33:46 AM 39.6756 -78.3119 291° West 409 471 29,500 850 Climbing Cleveland Center
Sat 11:34:46 AM 39.7181 -78.4564 291° West 427 491 30,000 800 Climbing Cleveland Center
Sat 11:35:46 AM 39.7603 -78.6008 291° West 432 497 31,100 1,650 Climbing Cleveland Center
Sat 11:36:46 AM 39.8003 -78.7564 289° West 420 483 33,300 1,450 Climbing Cleveland Center
Sat 11:37:46 AM 39.8233 -78.8936 282° West 409 471 34,000 350 Climbing Cleveland Center
Sat 11:38:46 AM 39.8294 -79.0342 273° West 398 458 34,000  Level Cleveland Center
Sat 11:39:46 AM 39.8375 -79.1772 274° West 393 452 34,000  Level Cleveland Center
Sat 11:40:46 AM 39.8414 -79.3206 272° West 393 452 34,000  Level Cleveland Center
Sat 11:41:46 AM 39.8450 -79.4636 272° West 393 452 34,000  Level Cleveland Center
Sat 11:42:46 AM 39.8483 -79.6097 272° West 403 464 34,000  Level Cleveland Center
Sat 11:43:46 AM 39.8514 -79.7528 272° West 403 464 34,000  Level Cleveland Center
Sat 11:44:46 AM 39.8544 -79.8961 272° West 403 464 34,000  Level Cleveland Center
Sat 11:45:46 AM 39.8575 -80.0422 272° West 403 464 34,000  Level Cleveland Center
Sat 11:46:46 AM 39.8600 -80.1692 272° West 403 464 34,000  Level Cleveland Center
Sat 11:47:46 AM 39.8625 -80.3100 271° West 403 464 34,000  Level Cleveland Center
Sat 11:48:46 AM 39.8669 -80.4558 272° West 403 464 34,000  Level Cleveland Center
Sat 11:49:46 AM 39.8692 -80.5967 271° West 403 464 34,000  Level Cleveland Center
Sat 11:50:46 AM 39.8711 -80.7400 271° West 403 464 34,000  Level Cleveland Center
Sat 11:51:46 AM 39.8728 -80.8833 271° West 403 464 34,000  Level Cleveland Center
Sat 11:53:20 AM 39.8719 -81.1114 270° West 402 463 34,000  Level Indianapolis Center
Sat 11:54:22 AM 39.8736 -81.2583 271° West 407 468 34,000  Level Indianapolis Center
Sat 11:55:23 AM 39.8753 -81.4031 271° West 402 463 34,000 -49 Level Indianapolis Center
Sat 11:56:24 AM 39.8719 -81.5719 269° West 402 463 33,900 -49 Descending Indianapolis Center
Sat 11:57:26 AM 39.8350 -81.7106 251° West 401 461 33,900  Level Indianapolis Center
Sat 11:58:27 AM 39.7961 -81.8467 250° West 398 458 33,900  Level Indianapolis Center
Sat 11:59:28 AM 39.7578 -81.9814 250° West 396 456 33,900  Level Indianapolis Center
Sat 12:00:30 PM 39.7206 -82.1144 250° West 390 449 33,900  Level Indianapolis Center
Sat 12:01:31 PM 39.6817 -82.2481 249° West 391 450 33,900  Level Indianapolis Center
Sat 12:02:32 PM 39.6433 -82.3822 250° West 392 451 33,900  Level Indianapolis Center
Sat 12:03:34 PM 39.6047 -82.5150 249° West 391 450 33,900  Level Indianapolis Center
Sat 12:04:35 PM 39.5656 -82.6492 249° West 393 452 33,900  Level Indianapolis Center
Sat 12:05:36 PM 39.5258 -82.7831 249° West 393 452 33,900  Level Indianapolis Center
Sat 12:06:38 PM 39.4878 -82.9158 250° West 391 450 33,900 49 Level Indianapolis Center
Sat 12:07:39 PM 39.4481 -83.0494 249° West 392 451 34,000  Climbing Indianapolis Center
Sat 12:08:40 PM 39.4083 -83.1822 249° West 391 450 33,900 -49 Descending Indianapolis Center
Sat 12:09:42 PM 39.3683 -83.3169 249° West 395 455 33,900  Level Indianapolis Center
Sat 12:10:43 PM 39.3275 -83.4511 249° West 395 455 33,900  Level Indianapolis Center
Sat 12:11:45 PM 39.2881 -83.5853 249° West 394 453 33,900  Level Indianapolis Center
Sat 12:12:46 PM 39.2403 -83.7414 248° West 396 456 33,900 49 Level Indianapolis Center
Sat 12:13:47 PM 39.1997 -83.8747 249° West 395 455 34,000 49 Climbing Indianapolis Center
Sat 12:14:49 PM 39.1592 -84.0086 249° West 396 456 34,000 -49 Level Indianapolis Center
Sat 12:15:50 PM 39.1172 -84.1433 248° West 399 459 33,900 -49 Descending Indianapolis Center
Sat 12:16:51 PM 39.0753 -84.2772 248° West 400 460 33,900  Level Indianapolis Center
Sat 12:17:53 PM 39.0336 -84.4103 248° West 398 458 33,900  Level Indianapolis Center
Sat 12:18:54 PM 38.9917 -84.5456 248° West 400 460 33,900  Level Indianapolis Center
Sat 12:19:55 PM 38.9500 -84.6800 248° West 402 463 33,900 49 Level Indianapolis Center
Sat 12:20:57 PM 38.9039 -84.8244 248° West 403 464 34,000 49 Climbing Indianapolis Center
Sat 12:21:58 PM 38.8617 -84.9567 248° West 402 463 34,000  Level Indianapolis Center
Sat 12:23:00 PM 38.8206 -85.0906 249° West 404 465 34,000  Level Indianapolis Center
Sat 12:24:01 PM 38.7772 -85.2225 247° West 403 464 34,000  Level Indianapolis Center
Sat 12:25:02 PM 38.7350 -85.3564 248° West 404 465 34,000  Level Indianapolis Center
Sat 12:26:04 PM 38.6919 -85.4881 247° West 403 464 34,000  Level Indianapolis Center
Sat 12:27:05 PM 38.6494 -85.6211 248° West 404 465 34,000  Level Indianapolis Center
Sat 12:28:06 PM 38.6008 -85.7689 247° West 407 468 34,000  Level Indianapolis Center
Sat 12:29:08 PM 38.5572 -85.9028 247° West 407 468 34,000  Level Indianapolis Center
Sat 12:30:09 PM 38.5122 -86.0372 247° West 409 471 34,000  Level Indianapolis Center
Sat 12:31:10 PM 38.4681 -86.1719 247° West 409 471 34,000  Level Indianapolis Center
Sat 12:32:11 PM 38.4233 -86.3050 247° West 407 468 34,000  Level Indianapolis Center
Sat 12:33:13 PM 38.3794 -86.4386 247° West 407 468 34,000  Level Indianapolis Center
Sat 12:34:14 PM 38.3347 -86.5714 247° West 406 467 34,000  Level Indianapolis Center
Sat 12:35:15 PM 38.2897 -86.7028 246° West 402 463 34,000  Level Indianapolis Center
Sat 12:36:17 PM 38.2444 -86.8369 247° West 406 467 34,000  Level Indianapolis Center
Sat 12:37:18 PM 38.1989 -86.9706 247° West 404 465 34,000  Level Indianapolis Center
Sat 12:38:20 PM 38.1528 -87.1061 247° West 406 467 34,000  Level Indianapolis Center
Sat 12:39:21 PM 38.1072 -87.2397 247° West 405 466 34,000  Level Indianapolis Center
Sat 12:40:22 PM 38.0614 -87.3717 246° West 405 466 34,000  Level Indianapolis Center
Sat 12:41:24 PM 38.0161 -87.5031 246° West 404 465 34,000  Level Indianapolis Center
Sat 12:42:25 PM 37.9614 -87.6606 246° West 404 465 34,000  Level Indianapolis Center
Sat 12:43:26 PM 37.9161 -87.7906 246° West 402 463 34,000  Level Indianapolis Center
Sat 12:44:28 PM 37.8700 -87.9206 246° West 402 463 34,000  Level Indianapolis Center
Sat 12:45:29 PM 37.8250 -88.0478 246° West 396 456 34,000  Level Indianapolis Center
Sat 12:46:31 PM 37.7800 -88.1744 246° West 395 455 34,000  Level Indianapolis Center
Sat 12:47:32 PM 37.7339 -88.3031 246° West 399 459 34,000  Level Indianapolis Center
Sat 12:48:33 PM 37.6883 -88.4297 246° West 395 455 34,000  Level Indianapolis Center
Sat 12:49:08 PM 37.6619 -88.5208 250° West 398 458 34,000  Level Memphis Center
Sat 12:50:08 PM 37.6181 -88.6500 247° West 404 465 34,000  Level Memphis Center
Sat 12:51:08 PM 37.5697 -88.7742 244° Southwest 404 465 34,000  Level Memphis Center
Sat 12:52:08 PM 37.5253 -88.9006 246° West 404 465 34,000  Level Memphis Center
Sat 12:53:08 PM 37.4767 -89.0267 244° Southwest 404 465 34,000  Level Memphis Center
Sat 12:54:08 PM 37.4303 -89.1503 245° Southwest 404 465 34,000  Level Memphis Center
Sat 12:55:08 PM 37.3856 -89.2764 246° West 404 465 34,000  Level Memphis Center
Sat 12:56:08 PM 37.3386 -89.4022 245° Southwest 404 465 34,000  Level Memphis Center
Sat 12:57:08 PM 37.2917 -89.5278 245° Southwest 399 459 34,000  Level Memphis Center
Sat 12:58:08 PM 37.2467 -89.6533 246° West 404 465 34,000  Level Memphis Center
Sat 12:59:08 PM 37.1992 -89.7761 244° Southwest 399 459 34,000  Level Memphis Center
Sat 01:00:08 PM 37.1497 -89.9014 244° Southwest 399 459 34,000  Level Memphis Center
Sat 01:01:08 PM 37.1022 -90.0292 245° Southwest 399 459 34,000  Level Memphis Center
Sat 01:02:08 PM 37.0547 -90.1567 245° Southwest 404 465 34,000  Level Memphis Center
Sat 01:03:08 PM 37.0069 -90.2842 245° Southwest 404 465 34,000 -150 Level Memphis Center
Sat 01:04:08 PM 36.9589 -90.4114 245° Southwest 404 465 33,700 -800 Descending Memphis Center
Sat 01:05:08 PM 36.9067 -90.5411 243° Southwest 404 465 32,400 -850 Descending Memphis Center
Sat 01:06:08 PM 36.8564 -90.6706 244° Southwest 409 471 32,000 -200 Descending Memphis Center
Sat 01:07:08 PM 36.8061 -90.8000 244° Southwest 409 471 32,000  Level Memphis Center
Sat 01:08:08 PM 36.7556 -90.9292 244° Southwest 416 479 32,000  Level Memphis Center
Sat 01:09:08 PM 36.7028 -91.0633 244° Southwest 421 484 32,000  Level Memphis Center
Sat 01:10:08 PM 36.6542 -91.1897 244° Southwest 416 479 32,000  Level Memphis Center
Sat 01:11:08 PM 36.6031 -91.3236 245° Southwest 423 487 32,000  Level Memphis Center
Sat 01:12:08 PM 36.5478 -91.4572 243° Southwest 423 487 32,000  Level Memphis Center
Sat 01:13:08 PM 36.4967 -91.5883 244° Southwest 423 487 32,000  Level Memphis Center
Sat 01:14:08 PM 36.4408 -91.7242 243° Southwest 423 487 32,000  Level Memphis Center
Sat 01:15:08 PM 36.3936 -91.8547 246° West 423 487 32,000  Level Memphis Center
Sat 01:16:08 PM 36.3397 -91.9853 243° Southwest 423 487 32,000  Level Memphis Center
Sat 01:17:08 PM 36.2881 -92.1156 244° Southwest 423 487 32,000  Level Memphis Center
Sat 01:18:08 PM 36.2339 -92.2481 243° Southwest 423 487 32,000  Level Memphis Center
Sat 01:19:08 PM 36.1797 -92.3781 243° Southwest 423 487 32,000  Level Memphis Center
Sat 01:20:08 PM 36.1297 -92.5053 244° Southwest 423 487 32,000  Level Memphis Center
Sat 01:21:08 PM 36.0753 -92.6347 243° Southwest 423 487 32,000  Level Memphis Center
Sat 01:22:08 PM 36.0208 -92.7669 243° Southwest 423 487 32,000  Level Memphis Center
Sat 01:23:08 PM 35.9681 -92.8961 243° Southwest 423 487 32,000  Level Memphis Center
Sat 01:24:08 PM 35.9133 -93.0250 242° Southwest 423 487 32,000  Level Memphis Center
Sat 01:25:08 PM 35.8503 -93.1458 237° Southwest 423 487 32,000  Level Memphis Center
Sat 01:26:08 PM 35.7850 -93.2667 236° Southwest 433 498 32,000  Level Memphis Center
Sat 01:27:08 PM 35.7258 -93.3769 237° Southwest 433 498 32,000  Level Memphis Center
Sat 01:28:08 PM 35.6606 -93.4947 236° Southwest 433 498 32,000  Level Memphis Center
Sat 01:29:08 PM 35.5947 -93.6175 237° Southwest 433 498 32,000  Level Memphis Center
Sat 01:30:08 PM 35.5311 -93.7347 236° Southwest 433 498 32,000  Level Memphis Center
Sat 01:31:08 PM 35.4653 -93.8569 237° Southwest 433 498 32,000  Level Memphis Center
Sat 01:32:08 PM 35.4014 -93.9742 236° Southwest 433 498 32,000  Level Memphis Center
Sat 01:33:08 PM 35.3375 -94.0908 236° Southwest 433 498 32,000  Level Memphis Center
Sat 01:34:08 PM 35.2714 -94.2075 235° Southwest 433 498 32,000  Level Memphis Center
Sat 01:35:08 PM 35.2050 -94.3289 236° Southwest 433 498 32,000  Level Memphis Center
Sat 01:36:08 PM 35.1408 -94.4403 235° Southwest 433 498 32,000  Level Memphis Center
Sat 01:37:08 PM 35.0806 -94.5567 238° Southwest 422 486 32,000  Level Memphis Center
Sat 01:37:25 PM 35.0556 -94.6008 235° Southwest 423 487 32,000  Level Fort Worth Center
Sat 01:38:25 PM 34.9892 -94.7094 233° Southwest 409 471 32,000  Level Fort Worth Center
Sat 01:39:25 PM 34.9014 -94.8033 221° Southwest 409 471 32,000  Level Fort Worth Center
Sat 01:40:25 PM 34.8178 -94.8919 221° Southwest 404 465 32,000  Level Fort Worth Center
Sat 01:41:25 PM 34.7361 -94.9803 222° Southwest 410 472 32,000  Level Fort Worth Center
Sat 01:42:26 PM 34.6522 -95.0686 221° Southwest 403 464 32,000  Level Fort Worth Center
Sat 01:43:26 PM 34.5703 -95.1564 221° Southwest 403 464 32,000  Level Fort Worth Center
Sat 01:44:25 PM 34.4864 -95.2469 222° Southwest 403 464 32,000 -200 Level Fort Worth Center
Sat 01:45:26 PM 34.4044 -95.3344 221° Southwest 403 464 31,600 -446 Descending Fort Worth Center
Sat 01:46:26 PM 34.3244 -95.4194 221° Southwest 398 458 31,100 -600 Descending Fort Worth Center
Sat 01:47:26 PM 34.2383 -95.5067 220° Southwest 398 458 30,400 -700 Descending Fort Worth Center
Sat 01:48:26 PM 34.1519 -95.5964 221° Southwest 404 465 29,700 -750 Descending Fort Worth Center
Sat 01:49:26 PM 34.0656 -95.6861 221° Southwest 404 465 28,900 -750 Descending Fort Worth Center
Sat 01:50:26 PM 33.9811 -95.7728 220° Southwest 404 465 28,200 -900 Descending Fort Worth Center
Sat 01:51:26 PM 33.8986 -95.8594 221° Southwest 404 465 27,100 -1,200 Descending Fort Worth Center
Sat 01:52:26 PM 33.8164 -95.9458 221° Southwest 404 465 25,800 -1,664 Descending Fort Worth Center
Sat 01:53:25 PM 33.7317 -96.0322 220° Southwest 393 452 23,800 -2,471 Descending Fort Worth Center
Sat 01:54:25 PM 33.6469 -96.1208 221° Southwest 403 464 20,900 -2,579 Descending Fort Worth Center
Sat 01:55:26 PM 33.5644 -96.2069 221° Southwest 403 464 18,600 -1,983 Descending Fort Worth Center
Sat 01:56:26 PM 33.4881 -96.2928 223° Southwest 396 456 16,900 -1,311 Descending Fort Worth Center
Sat 01:57:25 PM 33.4178 -96.3781 225° Southwest 366 421 16,000 -1,200 Descending Fort Worth Center
Sat 01:58:26 PM 33.3517 -96.4586 226° Southwest 352 405 14,500 -1,983 Descending Fort Worth Center
Sat 01:59:26 PM 33.2833 -96.5411 225° Southwest 352 405 12,000 -1,750 Descending Fort Worth Center
Sat 02:00:26 PM 33.2128 -96.6239 224° Southwest 358 412 11,000 -504 Descending Fort Worth Center
Sat 02:01:25 PM 33.1467 -96.7039 225° Southwest 352 405 11,000  Level Fort Worth Center
Sat 02:02:26 PM 33.0761 -96.7836 223° Southwest 352 405 11,000  Level Fort Worth Center
Sat 02:03:26 PM 33.0158 -96.8561 225° Southwest 325 374 11,000 -50 Level Fort Worth Center
Sat 02:04:26 PM 32.9575 -96.9058 216° Southwest 283 326 10,900 -857 Descending Fort Worth Center
Sat 02:05:25 PM 32.8928 -96.9061 180° South 255 293 9,300 -1,721 Descending Fort Worth Center
Sat 02:06:42 PM 32.8000 -96.9000 177° South 254 292 7,000 -1,466 Descending Dallas / Fort Worth TRACON
Sat 02:07:36 PM 32.7333 -96.9000 180° South 251 289 6,100 -842 Descending Dallas / Fort Worth TRACON
Sat 02:08:36 PM 32.6833 -96.9333 209° Southwest 226 260 5,400 -947 Descending Dallas / Fort Worth TRACON
Sat 02:09:30 PM 32.6667 -96.9833 248° West 202 232 4,300 -857 Descending Dallas / Fort Worth TRACON
Sat 02:10:42 PM 32.7167 -97.0167 331° Northwest 158 182 3,600 -650 Descending Dallas / Fort Worth TRACON
Sat 02:11:30 PM 32.7500 -97.0167 360° North 156 180 3,000 -750 Descending Dallas / Fort Worth TRACON

Login

Don't have an account? Register now (free) for customized features, flight alerts, and more!